Time;durP1;ratioP1;P1;durP2;ratioP2;P2;SDS_P1;SDS_P2;PMS_P1;PMS_P2;Temp;Humidity;BMP_temperature;BMP_pressure;BME280_temperature;BME280_humidity;BME280_pressure;Samples;Min_cycle;Max_cycle;Signal;HPM_P1;HPM_P2
2023/10/20 00:02:04;;;;;;;8.88;6.78;;;;;;;25.22;40.22;97880.31;4483074;32;34863;-63
2023/10/20 00:04:33;;;;;;;9.88;6.72;;;;;;;25.21;40.25;97870.50;4483009;32;34024;-63
2023/10/20 00:07:02;;;;;;;10.15;6.70;;;;;;;25.18;40.30;97870.00;4483092;32;34822;-63
2023/10/20 00:09:30;;;;;;;8.48;6.30;;;;;;;25.19;40.33;97873.53;4466889;32;33533;-64
2023/10/20 00:11:58;;;;;;;9.77;6.62;;;;;;;25.17;40.32;97868.34;4467202;32;33929;-63
2023/10/20 00:14:26;;;;;;;8.55;6.32;;;;;;;25.15;40.38;97867.00;4467156;32;33882;-63
2023/10/20 00:16:53;;;;;;;8.63;6.55;;;;;;;25.14;40.34;97866.19;4466869;32;34779;-63
2023/10/20 00:19:21;;;;;;;8.40;5.97;;;;;;;25.11;40.36;97866.75;4467172;32;34265;-63
2023/10/20 00:21:49;;;;;;;9.02;6.35;;;;;;;25.10;40.38;97867.03;4467283;32;33858;-64
2023/10/20 00:24:16;;;;;;;9.05;6.53;;;;;;;25.08;40.38;97867.31;4467164;32;34787;-65
2023/10/20 00:26:44;;;;;;;10.85;6.82;;;;;;;25.07;40.39;97873.03;4467423;32;34687;-64
2023/10/20 00:29:11;;;;;;;9.07;6.00;;;;;;;25.05;40.39;97876.06;4467412;32;33663;-62
2023/10/20 00:31:39;;;;;;;7.93;6.07;;;;;;;25.06;40.40;97866.75;4466944;32;33597;-63
2023/10/20 00:34:07;;;;;;;8.88;5.90;;;;;;;25.03;40.41;97863.78;4467093;32;34988;-63
2023/10/20 00:36:34;;;;;;;7.55;5.70;;;;;;;25.01;40.44;97855.88;4468796;32;34870;-64
2023/10/20 00:39:02;;;;;;;9.23;6.30;;;;;;;24.98;40.39;97856.44;4469383;32;32772;-65
2023/10/20 00:41:31;;;;;;;8.65;6.12;;;;;;;24.97;40.39;97852.09;4469416;32;33833;-64
2023/10/20 00:43:58;;;;;;;9.02;6.00;;;;;;;24.97;40.40;97843.91;4469240;32;33555;-64
2023/10/20 00:46:26;;;;;;;8.65;6.22;;;;;;;24.96;40.55;97838.75;4469581;32;33914;-63
2023/10/20 00:48:53;;;;;;;7.62;5.70;;;;;;;24.94;40.41;97841.72;4469426;32;33596;-64
2023/10/20 00:51:21;;;;;;;12.27;6.45;;;;;;;24.93;40.37;97821.00;4481507;32;33840;-63
2023/10/20 00:53:48;;;;;;;9.80;6.80;;;;;;;24.93;40.42;97821.81;4470824;32;34016;-63
2023/10/20 00:56:16;;;;;;;7.57;5.53;;;;;;;24.91;40.43;97817.78;4458031;32;34083;-64
2023/10/20 00:58:44;;;;;;;8.07;5.85;;;;;;;24.89;40.46;97809.84;4470593;32;33635;-64
2023/10/20 01:01:11;;;;;;;8.70;5.82;;;;;;;24.87;40.41;97809.34;4470791;32;34752;-63
2023/10/20 01:03:39;;;;;;;8.60;6.00;;;;;;;24.88;40.42;97801.97;4484752;32;34919;-63
2023/10/20 01:06:07;;;;;;;9.10;6.22;;;;;;;24.87;40.44;97795.69;4470690;32;34715;-64
2023/10/20 01:08:34;;;;;;;10.05;6.03;;;;;;;24.86;40.39;97795.97;4484878;32;33652;-64
2023/10/20 01:11:03;;;;;;;8.77;5.85;;;;;;;24.84;40.52;97795.44;4484817;32;33872;-63
2023/10/20 01:13:30;;;;;;;10.00;5.55;;;;;;;24.85;40.67;97795.12;4484546;32;34157;-63
2023/10/20 01:15:58;;;;;;;8.45;5.72;;;;;;;24.84;40.60;97779.06;4485131;32;34205;-64
2023/10/20 01:18:26;;;;;;;8.13;5.32;;;;;;;24.84;40.59;97774.44;4484828;32;34643;-64
2023/10/20 01:20:54;;;;;;;8.85;5.80;;;;;;;24.84;40.60;97770.88;4484616;32;33923;-65
2023/10/20 01:23:22;;;;;;;8.88;5.25;;;;;;;24.84;40.87;97770.88;4484753;32;33979;-64
2023/10/20 01:25:50;;;;;;;9.30;6.82;;;;;;;24.83;40.65;97770.06;4484636;32;34237;-63
2023/10/20 01:28:19;;;;;;;8.45;6.15;;;;;;;24.82;40.63;97775.81;4484607;32;33972;-63
2023/10/20 01:30:47;;;;;;;12.15;6.12;;;;;;;24.79;40.62;97760.00;4484680;32;34384;-64
2023/10/20 01:33:15;;;;;;;10.98;6.57;;;;;;;24.78;40.56;97758.41;4484681;32;33957;-63
2023/10/20 01:35:43;;;;;;;11.50;6.60;;;;;;;24.78;40.54;97759.22;4484530;32;34215;-63
2023/10/20 01:38:10;;;;;;;8.18;6.05;;;;;;;24.77;40.48;97751.31;4470610;32;33337;-63
2023/10/20 01:40:38;;;;;;;9.55;6.32;;;;;;;24.76;40.42;97755.97;4484714;32;34000;-63
2023/10/20 01:43:05;;;;;;;9.20;5.47;;;;;;;24.75;40.43;97753.50;4484559;32;33701;-63
2023/10/20 01:45:33;;;;;;;9.20;6.18;;;;;;;24.73;40.43;97742.88;4484532;32;34953;-64
2023/10/20 01:48:01;;;;;;;10.40;6.15;;;;;;;24.74;40.54;97746.41;4483863;32;34396;-64
2023/10/20 01:50:28;;;;;;;8.07;6.32;;;;;;;24.73;40.48;97739.34;4470314;32;34045;-63
2023/10/20 01:52:56;;;;;;;9.20;6.40;;;;;;;24.74;40.52;97738.25;4484575;32;33850;-64
2023/10/20 01:55:24;;;;;;;9.65;6.00;;;;;;;24.72;40.46;97733.09;4484633;32;33971;-63
2023/10/20 01:57:51;;;;;;;9.52;5.78;;;;;;;24.71;40.52;97736.06;4484692;32;33694;-64
2023/10/20 02:00:19;;;;;;;8.75;6.07;;;;;;;24.70;40.53;97735.25;4484583;32;33429;-63
2023/10/20 02:02:46;;;;;;;8.13;5.45;;;;;;;24.69;40.53;97722.72;4470678;32;34035;-63
2023/10/20 02:05:14;;;;;;;8.55;5.82;;;;;;;24.69;40.46;97728.19;4484463;32;34078;-64
2023/10/20 02:07:42;;;;;;;9.15;5.35;;;;;;;24.67;40.54;97736.66;4484457;32;33419;-63
2023/10/20 02:10:10;;;;;;;8.75;6.53;;;;;;;24.66;40.60;97735.00;4484466;32;33818;-64
2023/10/20 02:12:38;;;;;;;12.82;6.03;;;;;;;24.66;40.72;97718.66;4484566;32;34751;-64
2023/10/20 02:15:07;;;;;;;9.85;6.32;;;;;;;24.66;40.72;97718.66;4484500;32;34796;-63
2023/10/20 02:17:35;;;;;;;;;;;;;;;24.65;40.74;97705.31;4484743;32;34333;-63
2023/10/20 02:20:03;;;;;;;9.77;6.78;;;;;;;24.75;40.49;97702.50;4470463;32;34505;-64
2023/10/20 02:22:31;;;;;;;10.77;6.07;;;;;;;24.65;40.66;97703.38;4484318;32;34067;-63
2023/10/20 02:24:58;;;;;;;8.82;5.90;;;;;;;24.63;40.70;97702.88;4484120;32;34831;-64
2023/10/20 02:27:28;;;;;;;7.78;5.80;;;;;;;24.61;40.75;97696.06;4470265;32;33704;-64
2023/10/20 02:29:58;;;;;;;8.70;5.70;;;;;;;24.62;40.84;97701.25;4484312;32;33976;-63
2023/10/20 02:32:25;;;;;;;9.30;5.60;;;;;;;24.61;40.75;97690.63;4484217;32;33924;-64
2023/10/20 02:34:53;;;;;;;9.88;6.07;;;;;;;24.61;40.80;97705.06;4484521;32;34975;-64
2023/10/20 02:37:21;;;;;;;8.35;6.05;;;;;;;24.60;40.86;97694.44;4484327;32;34247;-64
2023/10/20 02:39:48;;;;;;;10.95;6.18;;;;;;;24.59;40.98;97699.09;4484082;32;33896;-63
2023/10/20 02:42:16;;;;;;;10.95;6.22;;;;;;;24.58;41.03;97693.94;4484276;32;33811;-63
2023/10/20 02:44:43;;;;;;;8.88;5.97;;;;;;;24.58;40.88;97708.38;4484158;32;34217;-64
2023/10/20 02:47:11;;;;;;;9.60;5.87;;;;;;;24.57;40.92;97712.16;4484006;32;34278;-64
2023/10/20 02:49:38;;;;;;;8.82;5.82;;;;;;;24.57;40.98;97709.44;4484270;32;34058;-65
2023/10/20 02:52:07;;;;;;;8.27;5.95;;;;;;;24.57;41.13;97700.47;4469958;32;34876;-64
2023/10/20 02:54:34;;;;;;;8.07;5.75;;;;;;;24.56;41.12;97701.56;4483924;32;33695;-63
2023/10/20 02:57:05;;;;;;;7.12;5.30;;;;;;;24.57;41.01;97703.19;4484188;32;33723;-63
2023/10/20 02:59:32;;;;;;;7.90;5.43;;;;;;;24.57;40.96;97695.00;4482622;32;33737;-64
2023/10/20 03:02:00;;;;;;;9.23;5.45;;;;;;;24.56;41.12;97691.47;4483868;32;33899;-63
2023/10/20 03:04:29;;;;;;;7.37;5.30;;;;;;;24.56;41.10;97696.91;4484249;32;34164;-63
2023/10/20 03:06:57;;;;;;;7.50;5.60;;;;;;;24.58;40.97;97699.37;4484037;32;33806;-64
2023/10/20 03:09:24;;;;;;;7.37;5.55;;;;;;;24.57;40.89;97698.53;4483746;32;34834;-63
2023/10/20 03:11:52;;;;;;;9.95;5.53;;;;;;;24.56;40.93;97705.09;4483808;32;34666;-63
2023/10/20 03:14:19;;;;;;;8.18;5.57;;;;;;;24.55;41.03;97708.13;4483810;32;34286;-63
2023/10/20 03:16:47;;;;;;;9.32;5.43;;;;;;;24.55;41.00;97708.13;4483729;32;34547;-63
2023/10/20 03:19:15;;;;;;;9.05;5.53;;;;;;;24.54;40.93;97706.50;4483853;32;34065;-63
2023/10/20 03:21:43;;;;;;;7.68;5.60;;;;;;;24.53;40.93;97713.87;4483794;32;34038;-64
2023/10/20 03:24:10;;;;;;;7.60;5.40;;;;;;;24.52;41.01;97708.69;4483882;32;34024;-64
2023/10/20 03:26:38;;;;;;;10.88;5.62;;;;;;;24.50;40.94;97708.97;4483657;32;33127;-64
2023/10/20 03:29:07;;;;;;;7.35;5.20;;;;;;;24.51;40.97;97709.78;4483986;32;33878;-63
2023/10/20 03:31:34;;;;;;;8.02;5.95;;;;;;;24.50;41.12;97703.50;4483415;32;33701;-64
2023/10/20 03:34:02;;;;;;;7.85;5.10;;;;;;;24.50;41.05;97700.78;4483711;32;34763;-64
2023/10/20 03:36:30;;;;;;;8.15;5.55;;;;;;;24.50;41.10;97691.81;4483668;32;33602;-64
2023/10/20 03:38:57;;;;;;;10.52;5.47;;;;;;;24.49;41.05;97696.44;4483420;32;33594;-63
2023/10/20 03:41:25;;;;;;;9.18;5.40;;;;;;;24.48;41.04;97693.97;4483634;32;34088;-65
2023/10/20 03:43:53;;;;;;;8.05;5.55;;;;;;;24.49;40.95;97706.53;4483521;32;34644;-63
2023/10/20 03:46:21;;;;;;;8.35;5.68;;;;;;;24.48;41.06;97693.97;4483593;32;33183;-63
2023/10/20 03:48:49;;;;;;;7.85;5.28;;;;;;;24.47;40.97;97690.44;4483300;32;33941;-64
2023/10/20 03:51:17;;;;;;;8.63;5.10;;;;;;;24.46;41.00;97694.28;4483305;32;34368;-64
2023/10/20 03:53:52;;;;;;;7.40;5.15;;;;;;;24.45;40.99;97695.38;4483232;32;33954;-63
2023/10/20 03:56:22;;;;;;;8.73;5.37;;;;;;;24.45;40.97;97700.03;4483335;32;33734;-63
2023/10/20 03:58:49;;;;;;;;;;;;;;;24.44;40.96;97701.94;4469588;32;33909;-64
2023/10/20 04:01:17;;;;;;;7.00;4.45;;;;;;;24.53;40.78;97696.66;4483294;32;34188;-66
2023/10/20 04:03:50;;;;;;;7.37;5.10;;;;;;;24.45;40.93;97691.84;4483265;32;34196;-66
2023/10/20 04:06:19;;;;;;;7.65;5.18;;;;;;;24.42;40.99;97674.13;4482788;32;33637;-66
2023/10/20 04:08:47;;;;;;;9.30;5.00;;;;;;;24.41;41.05;97675.22;4483164;32;33895;-65
2023/10/20 04:11:14;;;;;;;9.23;5.10;;;;;;;24.40;40.92;97671.69;4470176;32;34814;-66
2023/10/20 04:13:42;;;;;;;8.70;5.68;;;;;;;24.39;41.03;97672.00;4485351;32;34088;-66
2023/10/20 04:16:13;;;;;;;8.52;5.10;;;;;;;24.40;40.99;97673.63;4485347;32;33374;-67
2023/10/20 04:18:41;;;;;;;7.55;4.82;;;;;;;24.39;40.90;97680.16;4485351;32;33800;-66
2023/10/20 04:21:11;;;;;;;8.02;5.30;;;;;;;24.39;40.91;97678.25;4485527;32;33987;-65
2023/10/20 04:23:40;;;;;;;10.55;5.18;;;;;;;24.39;40.93;97674.72;4485183;32;34417;-66
2023/10/20 04:26:18;;;;;;;8.45;5.57;;;;;;;24.37;41.00;97666.81;4484970;32;34340;-66
2023/10/20 04:28:50;;;;;;;9.10;5.00;;;;;;;24.38;40.86;97659.44;4485230;32;34204;-64
2023/10/20 04:50:52;;;;;;;6.93;4.32;;;;;;;24.32;41.14;97664.09;4472880;32;33704;-66
2023/10/20 04:58:35;;;;;;;8.02;5.12;;;;;;;24.33;41.17;97671.16;4484909;32;34362;-63
2023/10/20 05:03:53;;;;;;;9.25;5.43;;;;;;;24.31;41.17;97659.75;4484900;32;34217;-63
2023/10/20 05:06:26;;;;;;;10.25;5.32;;;;;;;24.31;41.23;97661.66;4478124;32;34906;-63
2023/10/20 05:08:54;;;;;;;7.68;4.65;;;;;;;24.32;41.27;97655.09;4463259;32;34831;-63
2023/10/20 05:11:22;;;;;;;8.40;4.35;;;;;;;24.33;41.30;97667.63;4472775;32;33759;-63
2023/10/20 05:13:50;;;;;;;9.73;5.10;;;;;;;24.31;41.17;97672.56;4482653;32;34032;-64
2023/10/20 05:16:17;;;;;;;8.82;5.70;;;;;;;24.31;41.15;97667.09;4484508;32;34112;-63
2023/10/20 05:18:45;;;;;;;11.63;4.53;;;;;;;24.31;41.25;97667.09;4484319;32;34465;-63
2023/10/20 05:21:13;;;;;;;7.20;4.72;;;;;;;24.31;41.12;97667.09;4484094;32;34382;-63
2023/10/20 05:23:41;;;;;;;7.45;4.70;;;;;;;24.31;41.19;97659.75;4467940;32;33155;-63
2023/10/20 05:26:12;;;;;;;6.62;4.50;;;;;;;24.31;41.13;97659.75;4481291;32;34302;-63
2023/10/20 05:28:40;;;;;;;8.52;4.80;;;;;;;24.33;41.29;97668.44;4466014;32;34402;-63
2023/10/20 05:31:07;;;;;;;7.50;4.82;;;;;;;24.35;41.13;97673.63;4484408;32;34313;-62
2023/10/20 05:33:35;;;;;;;7.32;4.93;;;;;;;24.34;41.13;97674.69;4469861;32;33888;-64
2023/10/20 05:36:03;;;;;;;7.18;5.20;;;;;;;24.33;41.32;97684.78;4484088;32;33949;-63
2023/10/20 05:38:31;;;;;;;11.48;5.03;;;;;;;24.33;41.19;97673.06;4455502;32;34359;-62
2023/10/20 05:40:59;;;;;;;8.27;5.15;;;;;;;24.33;41.31;97678.53;4454568;32;34517;-63
2023/10/20 05:43:27;;;;;;;8.75;4.90;;;;;;;24.33;41.26;97670.34;4470121;32;33913;-63
2023/10/20 05:45:55;;;;;;;8.30;4.90;;;;;;;24.32;41.27;97680.44;4483836;32;34873;-64
2023/10/20 05:48:22;;;;;;;8.80;5.57;;;;;;;24.32;41.24;97691.34;4483904;32;32642;-67
2023/10/20 05:50:59;;;;;;;8.15;4.97;;;;;;;24.32;41.14;97690.53;4484225;32;33732;-66
2023/10/20 05:53:27;;;;;;;8.70;5.05;;;;;;;24.34;41.23;97683.72;4484309;32;33604;-62
2023/10/20 05:55:55;;;;;;;6.30;4.47;;;;;;;24.34;41.31;97688.31;4484192;32;34191;-63
2023/10/20 05:58:22;;;;;;;7.32;4.90;;;;;;;24.32;41.30;97688.62;4484216;32;34011;-63
2023/10/20 06:00:50;;;;;;;7.22;4.40;;;;;;;24.32;41.27;97682.34;4483950;32;33800;-64
2023/10/20 06:03:30;;;;;;;6.97;5.12;;;;;;;24.30;41.34;97690.00;4484235;32;34458;-66
2023/10/20 06:06:00;;;;;;;7.35;4.68;;;;;;;24.32;41.27;97693.25;4483966;32;34754;-64
2023/10/20 06:08:28;;;;;;;6.73;4.47;;;;;;;24.31;41.28;97683.47;4482776;32;34247;-63
2023/10/20 06:11:04;;;;;;;7.07;4.53;;;;;;;24.32;41.23;97685.88;4479210;32;34634;-67
2023/10/20 06:13:32;;;;;;;6.68;4.62;;;;;;;24.31;41.26;97678.81;4454439;32;34022;-67
2023/10/20 06:16:20;;;;;;;6.18;4.65;;;;;;;24.30;41.20;97679.91;4467115;32;34166;-63
2023/10/20 06:18:47;;;;;;;8.30;4.82;;;;;;;24.33;41.32;97675.81;4467321;32;34050;-63
2023/10/20 06:21:16;;;;;;;5.78;4.25;;;;;;;24.31;41.19;97684.28;4468573;32;33985;-63
2023/10/20 06:23:45;;;;;;;7.80;4.50;;;;;;;24.30;41.18;97679.91;4468300;32;33940;-64
2023/10/20 06:26:13;;;;;;;7.43;5.12;;;;;;;24.30;41.15;97685.38;4468157;32;33855;-63
2023/10/20 06:28:41;;;;;;;6.93;4.60;;;;;;;24.31;41.13;97684.28;4468654;32;33747;-65
2023/10/20 06:34:17;;;;;;;8.43;4.93;;;;;;;24.34;41.59;97671.97;4466769;32;33668;-66
2023/10/20 06:36:48;;;;;;;10.80;4.90;;;;;;;24.30;41.35;97662.75;4482463;32;33807;-65
2023/10/20 06:39:18;;;;;;;7.70;4.70;;;;;;;24.29;41.18;97672.81;4483611;32;34297;-64
2023/10/20 06:41:47;;;;;;;14.95;4.85;;;;;;;24.28;41.24;97657.56;4478650;32;34828;-64
2023/10/20 06:44:19;;;;;;;9.00;5.18;;;;;;;24.29;41.16;97658.38;4468225;32;33145;-62
2023/10/20 06:46:46;;;;;;;7.68;4.93;;;;;;;24.28;41.23;97662.22;4467562;32;33101;-63
2023/10/20 06:49:18;;;;;;;21.40;5.15;;;;;;;24.28;41.24;97664.94;4476253;32;32867;-63
2023/10/20 06:51:47;;;;;;;7.97;4.90;;;;;;;24.27;41.25;97661.41;4455309;32;33632;-64
2023/10/20 06:54:16;;;;;;;12.70;5.30;;;;;;;24.27;41.29;97668.75;4483714;32;34537;-65
2023/10/20 06:56:44;;;;;;;15.57;5.22;;;;;;;24.26;41.32;97673.41;4469102;32;34155;-67
2023/10/20 06:59:15;;;;;;;14.85;4.78;;;;;;;24.26;41.34;97661.69;4456777;32;32581;-66
2023/10/20 07:01:43;;;;;;;8.77;4.68;;;;;;;24.28;41.34;97673.09;4469866;32;34690;-67
2023/10/20 07:04:13;;;;;;;13.38;5.03;;;;;;;24.27;41.38;97663.31;4483542;32;34790;-66
2023/10/20 07:06:41;;;;;;;7.75;4.60;;;;;;;24.27;41.37;97664.13;4478880;32;35369;-65
2023/10/20 07:09:11;;;;;;;9.02;4.60;;;;;;;24.26;41.39;97665.22;4466744;32;33152;-67
2023/10/20 07:11:41;;;;;;;7.03;5.12;;;;;;;24.26;41.46;97670.69;4468055;32;34708;-66
2023/10/20 07:14:10;;;;;;;9.77;4.65;;;;;;;24.27;41.46;97671.50;4467818;32;33975;-66
2023/10/20 07:16:38;;;;;;;9.50;5.67;;;;;;;24.27;41.42;97672.31;4479170;32;34177;-64
2023/10/20 07:19:06;;;;;;;10.63;5.18;;;;;;;24.27;41.47;97666.84;4466824;32;34608;-64
2023/10/20 07:21:34;;;;;;;7.10;4.60;;;;;;;24.27;41.46;97675.03;4467914;32;34171;-65
2023/10/20 07:24:05;;;;;;;7.93;3.95;;;;;;;24.27;41.55;97675.03;4467722;32;33758;-69
2023/10/20 07:26:32;;;;;;;9.75;4.45;;;;;;;24.28;41.66;97675.84;4466182;32;32837;-69
2023/10/20 07:29:01;;;;;;;13.88;4.78;;;;;;;24.27;41.81;97677.75;4479266;32;33373;-66
2023/10/20 07:31:28;;;;;;;8.68;5.03;;;;;;;24.29;41.83;97678.28;4483148;32;33956;-69
2023/10/20 07:33:56;;;;;;;8.70;4.15;;;;;;;24.29;41.84;97674.72;4483372;32;34963;-65
2023/10/20 07:36:24;;;;;;;8.40;4.70;;;;;;;24.30;41.87;97684.56;4483433;32;34166;-64
2023/10/20 07:38:51;;;;;;;11.27;4.62;;;;;;;24.29;41.91;97667.38;4481832;32;33591;-67
2023/10/20 07:41:19;;;;;;;7.32;4.80;;;;;;;24.30;41.96;97669.03;4483124;32;33846;-66
2023/10/20 07:43:48;;;;;;;10.23;4.90;;;;;;;24.31;41.97;97667.91;4483315;32;33593;-64
2023/10/20 07:46:17;;;;;;;16.12;4.87;;;;;;;24.32;42.03;97663.28;4457753;32;34055;-65
2023/10/20 07:48:45;;;;;;;7.35;4.87;;;;;;;24.32;42.07;97671.44;4470794;32;33216;-66
2023/10/20 07:51:13;;;;;;;11.12;4.78;;;;;;;24.33;41.83;97664.91;4485005;32;33395;-64
2023/10/20 07:53:46;;;;;;;11.50;5.30;;;;;;;24.32;42.18;97666.81;4470817;32;33663;-63
2023/10/20 07:56:15;;;;;;;10.32;4.80;;;;;;;24.31;42.29;97658.94;4468680;32;34141;-63
2023/10/20 07:58:43;;;;;;;11.85;4.72;;;;;;;24.32;42.47;97657.81;4441578;32;33457;-61
2023/10/20 08:01:11;;;;;;;12.27;5.47;;;;;;;24.31;42.59;97653.47;4474675;32;34425;-63
2023/10/20 08:03:42;;;;;;;8.68;5.45;;;;;;;24.34;42.66;97655.63;4473090;32;34055;-62
2023/10/20 08:06:14;;;;;;;7.85;4.35;;;;;;;24.39;42.62;97648.28;4469970;32;34118;-62
2023/10/20 08:08:42;;;;;;;9.17;4.63;;;;;;;24.50;42.52;97656.38;4476646;32;33684;-62
2023/10/20 08:11:10;;;;;;;9.30;4.32;;;;;;;24.62;42.32;97649.44;4468730;32;33874;-62
2023/10/20 08:13:38;;;;;;;12.30;4.90;;;;;;;24.73;42.16;97643.91;4457517;32;33759;-64
2023/10/20 08:16:09;;;;;;;9.77;5.00;;;;;;;24.85;41.96;97644.31;4485218;32;34652;-62
2023/10/20 08:18:37;;;;;;;8.02;4.90;;;;;;;24.96;41.76;97637.66;4470920;32;33634;-76
2023/10/20 08:21:06;;;;;;;9.50;4.45;;;;;;;25.08;41.57;97632.63;4467760;32;33793;-72
2023/10/20 08:23:34;;;;;;;10.60;4.20;;;;;;;25.16;41.48;97634.75;4475288;32;33905;-63
2023/10/20 08:26:02;;;;;;;8.43;4.28;;;;;;;25.27;41.43;97645.53;4470157;32;34169;-65
2023/10/20 08:28:29;;;;;;;9.98;4.28;;;;;;;25.37;41.33;97648.97;4467761;32;33776;-76
2023/10/20 08:31:06;;;;;;;8.27;4.75;;;;;;;25.45;41.21;97644.78;4467876;32;33596;-63
2023/10/20 08:33:33;;;;;;;8.73;3.97;;;;;;;25.55;41.17;97657.50;4454945;32;33595;-63
2023/10/20 08:36:15;;;;;;;7.57;3.97;;;;;;;25.62;41.05;97656.03;4469250;32;34694;-67
2023/10/20 08:38:45;;;;;;;9.82;4.47;;;;;;;25.68;41.02;97662.25;4456943;32;33007;-67
2023/10/20 08:41:14;;;;;;;7.10;4.10;;;;;;;25.74;40.93;97657.53;4467914;32;34645;-70
2023/10/20 08:43:43;;;;;;;12.60;4.35;;;;;;;25.82;40.84;97662.38;4455049;32;34032;-61
2023/10/20 08:46:11;;;;;;;9.45;4.57;;;;;;;25.89;40.77;97652.72;4468938;32;34083;-62
2023/10/20 08:48:39;;;;;;;11.70;4.18;;;;;;;25.99;40.72;97667.34;4468764;32;34543;-63
2023/10/20 08:51:07;;;;;;;8.52;4.07;;;;;;;26.08;40.60;97673.78;4467745;32;33814;-66
2023/10/20 08:53:36;;;;;;;12.93;5.25;;;;;;;26.17;40.46;97666.53;4469706;32;33498;-63
2023/10/20 08:56:08;;;;;;;9.40;4.15;;;;;;;26.23;40.37;97661.81;4435543;32;33527;-66
2023/10/20 08:58:36;;;;;;;10.73;4.20;;;;;;;26.28;40.31;97673.47;4473751;32;34253;-66
2023/10/20 09:01:04;;;;;;;8.48;3.87;;;;;;;26.30;40.31;97668.53;4467454;32;33859;-66
2023/10/20 09:03:39;;;;;;;12.75;4.25;;;;;;;26.32;40.25;97662.75;4473053;32;34894;-65
2023/10/20 09:06:09;;;;;;;11.70;4.10;;;;;;;26.35;40.14;97659.44;4463281;32;34150;-68
2023/10/20 09:08:37;;;;;;;8.98;4.68;;;;;;;26.34;40.13;97660.53;4483616;32;33754;-64
2023/10/20 09:11:08;;;;;;;8.90;4.45;;;;;;;26.34;40.15;97657.78;4477382;32;33943;-64
2023/10/20 09:13:39;;;;;;;8.95;4.35;;;;;;;26.35;40.22;97670.38;4464806;32;33580;-64
2023/10/20 09:16:08;;;;;;;12.70;4.62;;;;;;;26.34;40.28;97655.06;4466778;32;34210;-66
2023/10/20 09:18:43;;;;;;;10.82;4.25;;;;;;;26.33;40.38;97667.09;4456570;32;34432;-68
2023/10/20 09:21:13;;;;;;;15.93;4.32;;;;;;;26.33;40.35;97656.97;4484461;32;34302;-64
2023/10/20 09:23:51;;;;;;;10.05;4.20;;;;;;;26.32;40.29;97660.84;4466457;32;34050;-66
2023/10/20 09:26:20;;;;;;;11.10;4.50;;;;;;;26.32;40.27;97652.63;4455946;32;34439;-63
2023/10/20 09:28:53;;;;;;;13.40;5.28;;;;;;;26.28;40.30;97637.94;4475687;32;32129;-67
2023/10/20 09:31:22;;;;;;;9.82;4.50;;;;;;;26.27;40.40;97643.69;4454855;32;34864;-67
2023/10/20 09:33:50;;;;;;;9.10;4.12;;;;;;;26.25;40.44;97643.97;4468089;32;34020;-68
2023/10/20 09:36:18;;;;;;;13.23;4.72;;;;;;;26.22;40.52;97647.31;4468733;32;34073;-64
2023/10/20 09:38:51;;;;;;;13.52;4.40;;;;;;;26.20;40.58;97647.59;4454226;32;33241;-62
2023/10/20 09:41:27;;;;;;;9.70;4.20;;;;;;;26.20;40.50;97644.88;4467987;32;34980;-64
2023/10/20 09:44:02;;;;;;;12.00;4.82;;;;;;;26.19;40.43;97637.78;4469872;32;34903;-63
2023/10/20 09:46:55;;;;;;;13.52;4.10;;;;;;;26.18;40.39;97632.63;4468766;32;34135;-64
2023/10/20 09:49:25;;;;;;;8.48;3.58;;;;;;;26.23;40.27;97632.53;4468247;32;33572;-64
2023/10/20 09:51:55;;;;;;;13.40;4.10;;;;;;;26.17;40.37;97625.53;4467761;32;34000;-63
2023/10/20 09:54:25;;;;;;;11.55;4.35;;;;;;;26.15;40.36;97630.47;4468090;32;34877;-64
2023/10/20 09:56:53;;;;;;;8.43;4.12;;;;;;;26.14;40.41;97628.84;4438635;32;33662;-64
2023/10/20 09:59:23;;;;;;;15.65;4.90;;;;;;;26.10;40.44;97625.88;4453051;32;33585;-64
2023/10/20 10:01:59;;;;;;;12.25;4.25;;;;;;;26.06;40.56;97640.44;4461215;32;34511;-64
2023/10/20 10:04:29;;;;;;;7.65;3.92;;;;;;;26.02;40.58;97621.13;4467424;32;33776;-67
2023/10/20 10:07:03;;;;;;;8.57;4.12;;;;;;;26.00;40.59;97620.59;4483854;32;33724;-70
2023/10/20 10:09:49;;;;;;;9.18;4.75;;;;;;;26.01;40.57;97605.00;4483363;32;34243;-65
2023/10/20 10:12:18;;;;;;;7.47;4.43;;;;;;;25.98;40.58;97592.75;4477040;32;33729;-65
2023/10/20 10:15:12;;;;;;;12.50;4.23;;;;;;;25.94;40.70;97606.19;4476992;32;34050;-64
2023/10/20 10:17:46;;;;;;;12.90;4.85;;;;;;;25.93;40.75;97601.03;4483842;32;34247;-66
2023/10/20 10:20:27;;;;;;;15.43;4.45;;;;;;;25.89;40.89;97611.72;4456686;32;33498;-64
2023/10/20 10:23:01;;;;;;;10.25;4.57;;;;;;;25.88;40.92;97629.25;4476377;32;34716;-64
2023/10/20 10:25:35;;;;;;;9.90;4.18;;;;;;;25.87;40.96;97632.25;4478545;32;33841;-63
2023/10/20 10:28:15;;;;;;;11.12;4.55;;;;;;;25.84;41.02;97630.13;4468166;32;34154;-62
2023/10/20 10:30:45;;;;;;;12.20;4.28;;;;;;;25.83;41.05;97629.28;4470172;32;34348;-60
2023/10/20 10:33:13;;;;;;;9.68;4.45;;;;;;;25.83;41.05;97625.75;4469290;32;34643;-66
2023/10/20 10:35:40;;;;;;;9.30;4.45;;;;;;;25.78;41.12;97634.81;4482213;32;33939;-63
2023/10/20 10:38:21;;;;;;;10.13;4.28;;;;;;;25.77;41.14;97629.66;4481390;32;34128;-68
2023/10/20 10:40:52;;;;;;;10.48;4.15;;;;;;;25.78;41.12;97634.81;4440108;32;32817;-71
2023/10/20 10:43:21;;;;;;;9.25;3.97;;;;;;;25.74;41.28;97630.22;4466889;32;34024;-71
2023/10/20 10:45:54;;;;;;;14.07;4.53;;;;;;;25.69;41.29;97621.00;4469625;32;34700;-61
2023/10/20 10:48:29;;;;;;;13.30;4.65;;;;;;;25.66;41.32;97616.13;4467651;32;32861;-64
2023/10/20 10:50:57;;;;;;;13.32;4.85;;;;;;;25.66;41.40;97610.66;4441388;32;32567;-65
2023/10/20 10:53:25;;;;;;;26.67;5.70;;;;;;;25.63;41.48;97605.78;4453376;32;32807;-73
2023/10/20 10:55:54;;;;;;;14.95;4.50;;;;;;;25.62;41.53;97600.59;4455218;32;33806;-65
2023/10/20 10:58:23;;;;;;;17.27;5.05;;;;;;;25.61;41.62;97607.19;4469635;32;34732;-65
2023/10/20 11:00:54;;;;;;;19.60;5.23;;;;;;;25.59;41.59;97599.25;4458321;32;34422;-64
2023/10/20 11:03:22;;;;;;;27.42;6.78;;;;;;;25.56;41.62;97586.22;4456434;32;33487;-64
2023/10/20 11:05:53;;;;;;;26.48;5.55;;;;;;;25.53;41.65;97581.34;4473836;32;34841;-64
2023/10/20 11:08:20;;;;;;;24.52;5.00;;;;;;;25.53;41.65;97564.16;4450276;32;34056;-64
2023/10/20 11:10:49;;;;;;;16.80;5.25;;;;;;;25.51;41.68;97559.00;4483474;32;34053;-65
2023/10/20 11:13:23;;;;;;;20.20;4.97;;;;;;;25.49;41.69;97560.38;4457074;32;34675;-65
2023/10/20 11:16:04;;;;;;;16.85;5.05;;;;;;;25.48;41.65;97556.03;4444807;32;34207;-64
2023/10/20 11:18:33;;;;;;;16.73;4.37;;;;;;;25.45;41.63;97552.75;4468034;32;34197;-64
2023/10/20 11:21:00;;;;;;;30.83;5.87;;;;;;;25.44;41.70;97540.22;4464630;32;34408;-63
2023/10/20 11:23:29;;;;;;;14.80;4.15;;;;;;;25.42;41.77;97519.78;4449124;32;34057;-64
2023/10/20 11:25:57;;;;;;;17.00;5.55;;;;;;;25.40;41.86;97520.06;4469631;32;34186;-64
2023/10/20 11:28:25;;;;;;;15.25;4.62;;;;;;;25.40;42.10;97538.38;4450991;32;34212;-65
2023/10/20 11:30:53;;;;;;;13.25;4.37;;;;;;;25.38;42.33;97519.56;4450929;32;33984;-63
2023/10/20 11:33:21;;;;;;;14.30;5.20;;;;;;;25.39;42.28;97542.22;4448110;32;32779;-64
2023/10/20 11:35:49;;;;;;;24.17;4.97;;;;;;;25.37;42.37;97542.53;4467686;32;33604;-65
2023/10/20 11:38:17;;;;;;;14.65;4.80;;;;;;;25.35;42.10;97522.06;4459496;32;33863;-64
2023/10/20 11:40:49;;;;;;;15.02;4.57;;;;;;;25.34;42.00;97512.25;4467588;32;33755;-64
2023/10/20 11:43:17;;;;;;;19.25;4.85;;;;;;;25.32;41.97;97509.00;4466513;32;34699;-65
2023/10/20 11:45:45;;;;;;;13.93;4.78;;;;;;;25.30;41.98;97528.41;4467571;32;33652;-64
2023/10/20 11:48:12;;;;;;;14.05;5.18;;;;;;;25.29;41.97;97523.25;4461073;32;33871;-64
2023/10/20 11:50:40;;;;;;;12.48;4.90;;;;;;;25.28;41.91;97533.34;4482788;32;34405;-63
2023/10/20 11:53:08;;;;;;;14.05;5.10;;;;;;;25.27;41.87;97522.72;4474183;32;33822;-64
2023/10/20 11:55:36;;;;;;;11.85;4.40;;;;;;;25.26;41.81;97523.81;4472996;32;33948;-64
2023/10/20 11:58:04;;;;;;;11.38;4.20;;;;;;;25.24;41.76;97520.59;4467900;32;34432;-63
2023/10/20 12:00:32;;;;;;;11.57;3.92;;;;;;;25.26;41.66;97519.19;4472271;31;34262;-62
2023/10/20 12:03:00;;;;;;;13.43;4.37;;;;;;;25.24;41.69;97526.06;4467780;32;34628;-63
2023/10/20 12:05:29;;;;;;;9.82;3.65;;;;;;;25.22;41.64;97518.13;4453062;32;34026;-62
2023/10/20 12:07:57;;;;;;;9.02;4.12;;;;;;;25.22;41.60;97517.31;4466613;32;34137;-62
2023/10/20 12:10:27;;;;;;;15.60;3.92;;;;;;;25.22;41.55;97514.59;4466991;32;33661;-61
2023/10/20 12:12:54;;;;;;;15.80;3.92;;;;;;;25.19;41.52;97510.56;4466913;32;33053;-62